Klamath Falls, OR

06:23 PDT le 28 août 2014 (GMT -0700)
Klamath Falls International | Change Station
CLOSE
Current Station
Aéroport
Location: Klamath Falls,
Altitude: 4091 ft
Stations météo à proximité

Alt. 4091 ft 42.15 °N, 121.72 °W | Updated 30 minutes ago

Smoke
Fumée
51 ° F
Paraît 51 ° F
N
4
Vent Variable Vent de ESE

Aujourd'hui
Haut(e) -- | Bas -- ° F
--% Risque de précip.
Hier
Haut(e) -- | Bas -- ° F
Precip. -- pouce
6:28 AM 7:47 PM
Lune montante, 8% visible
Pression 30.06 pouce
Visibilité 10.0 Miles terrestres
Nuages Nuageux 4000 ft
Point de rosée 44 ° F
Humidité 77%
Précipitations 0.00 pouce
Profondeur de la couche neigeuse 0 in
UV 0 sur 12
Pollen 6.60 sur 12
Qualité de l'air Non disponible.
Flu Activity Non disponible.
METAR KLMT 281253Z AUTO 12003KT 10SM FU BKN040 11/07 A3019 RMK AO2 SLP180 T01060067

More Conditions Fewer Conditions

Pression 30.06 pouce
Visibilité 10.0 Miles terrestres
Nuages Nuageux 4000 ft
Point de rosée 44 ° F
Humidité 77%
Précipitations 0.00 pouce
Profondeur de la couche neigeuse 0 in
UV 0 sur 12
Pollen 6.60 sur 12
Qualité de l'air Non disponible.
Flu Activity Non disponible.
METAR KLMT 281253Z AUTO 12003KT 10SM FU BKN040 11/07 A3019 RMK AO2 SLP180 T01060067

More Conditions Fewer Conditions

10-Day Weather Forecast

Almanac

Astronomie

Aug. 28, 2014 Lever Coucher
Temps réel 06:28 PDT 19:47 PDT
Crépuscule civil 05:59 PDT 20:16 PDT
Crépuscule nautique 05:24 PDT 20:50 PDT
Crépuscule astronomique 04:47 PDT 21:27 PDT
Lune 09:29 PDT 21:09 PDT
Durée de lumière visible 14h 16m
Longueur du jour
13h 18m
Tomorrow will be 2m 41s shorter.
Lune montante, 8% of the Moon is Illuminated
Aujourd'hui
Lune montante
Sep 2
Premier quartier
Sep 8
Pleine lune
Sep 15
Dernier quartier
Sep 24
Nouveau

Extrêmes aujourd'hui

State Highs State Lows

Community

WunderPhotos

Upload Photos

1,747,947 Photos téléchargées !

Nearby

Épaisseur de neige

Station Depth Altitude
Strawberry 0 in 5760 ft
Fourmile Lake 1 in 6000 ft
Gerber Reservoir 0 in 4850 ft
Billie Creek Divide 0 in 5300 ft
Cold Springs Camp 0 in 6100 ft

Activité sismique

Ville Distance Mag. Time & Date
Hayfork, California 143 Miles terrestres 2.7 14:57 PDT
2014-08-25
Minimum magnitude displayed is 2.5.

Températures des eaux côtières

Lieu Température
Aucun rapport de station

Stations météo à proximité